createdAt,value
2019-04-12T00:02:16.801Z,95511.72
2019-04-12T00:04:46.945Z,95506.71
2019-04-12T00:07:15.561Z,95511.94
2019-04-12T00:09:44.426Z,95514.38
2019-04-12T00:12:13.652Z,95509.11
2019-04-12T00:14:42.362Z,95506.23
2019-04-12T00:17:13.759Z,95507.00
2019-04-12T00:19:43.463Z,95508.22
2019-04-12T00:22:15.836Z,95503.52
2019-04-12T00:24:42.059Z,95508.19
2019-04-12T00:27:10.675Z,95506.34
2019-04-12T00:29:39.337Z,95508.23
2019-04-12T00:32:07.930Z,95509.05
2019-04-12T00:34:37.027Z,95509.61
2019-04-12T00:37:05.866Z,95509.14
2019-04-12T00:39:34.473Z,95510.67
2019-04-12T00:42:03.681Z,95506.65
2019-04-12T00:44:33.838Z,95505.72
2019-04-12T00:47:10.131Z,95509.42
2019-04-12T00:49:40.668Z,95518.32
2019-04-12T00:52:14.003Z,95514.63
2019-04-12T00:54:46.345Z,95515.91
2019-04-12T00:57:10.004Z,95510.28
2019-04-12T00:59:38.739Z,95514.28
2019-04-12T01:02:19.936Z,95511.82
2019-04-12T01:04:51.357Z,95511.02
2019-04-12T01:07:20.650Z,95502.55
2019-04-12T01:09:52.970Z,95507.44
2019-04-12T01:12:19.906Z,95505.74
2019-04-12T01:14:48.734Z,95500.55
2019-04-12T01:17:17.330Z,95497.14
2019-04-12T01:19:45.919Z,95499.23
2019-04-12T01:22:15.688Z,95501.37
2019-04-12T01:24:44.570Z,95501.09
2019-04-12T01:27:16.787Z,95501.66
2019-04-12T01:29:47.645Z,95501.84
2019-04-12T01:32:14.175Z,95503.19
2019-04-12T01:34:42.768Z,95495.22
2019-04-12T01:37:11.678Z,95490.22
2019-04-12T01:39:40.262Z,95488.70
2019-04-12T01:42:09.103Z,95499.52
2019-04-12T01:44:37.710Z,95493.86
2019-04-12T01:47:06.303Z,95493.38
2019-04-12T01:49:34.900Z,95485.09
2019-04-12T01:52:03.568Z,95492.33
2019-04-12T01:54:32.199Z,95499.53
2019-04-12T01:57:00.793Z,95493.89
2019-04-12T01:59:29.388Z,95493.48
2019-04-12T02:01:58.012Z,95492.76
2019-04-12T02:04:26.656Z,95490.80
2019-04-12T02:06:55.261Z,95494.20
2019-04-12T02:09:24.380Z,95483.92
2019-04-12T02:11:53.050Z,95485.48
2019-04-12T02:14:21.726Z,95486.80
2019-04-12T02:16:50.326Z,95489.89
2019-04-12T02:19:19.288Z,95484.00
2019-04-12T02:21:47.899Z,95485.20
2019-04-12T02:24:16.798Z,95487.36
2019-04-12T02:26:45.424Z,95483.59
2019-04-12T02:29:14.582Z,95481.06
2019-04-12T02:32:15.847Z,95480.43
2019-04-12T02:34:45.043Z,95474.59
2019-04-12T02:37:13.951Z,95476.58
2019-04-12T02:39:42.863Z,95478.65
2019-04-12T02:42:11.882Z,95477.03
2019-04-12T02:44:41.056Z,95477.85
2019-04-12T02:47:32.308Z,95476.86
2019-04-12T02:50:23.293Z,95474.23
2019-04-12T02:53:04.772Z,95474.72
2019-04-12T02:55:54.314Z,95474.18
2019-04-12T02:58:34.450Z,95476.40
2019-04-12T03:01:05.462Z,95472.89
2019-04-12T03:03:34.169Z,95471.73
2019-04-12T03:06:02.830Z,95469.76
2019-04-12T03:08:31.528Z,95480.56
2019-04-12T03:11:00.412Z,95469.11
2019-04-12T03:13:30.303Z,95476.53
2019-04-12T03:16:00.122Z,95474.09
2019-04-12T03:18:28.795Z,95475.32
2019-04-12T03:20:57.483Z,95466.80
2019-04-12T03:23:26.186Z,95473.26
2019-04-12T03:25:58.083Z,95470.91
2019-04-12T03:28:25.485Z,95471.53
2019-04-12T03:30:54.649Z,95476.58
2019-04-12T03:33:23.345Z,95480.61
2019-04-12T03:35:52.099Z,95486.50
2019-04-12T03:38:20.894Z,95475.80
2019-04-12T03:40:49.660Z,95480.66
2019-04-12T03:43:19.028Z,95473.14
2019-04-12T03:45:47.728Z,95481.05
2019-04-12T03:48:16.557Z,95481.03
2019-04-12T03:50:45.440Z,95479.81
2019-04-12T03:53:14.209Z,95481.50
2019-04-12T03:55:42.806Z,95484.06
2019-04-12T03:58:11.588Z,95475.09
2019-04-12T04:00:42.929Z,95482.95
2019-04-12T04:03:11.642Z,95480.55
2019-04-12T04:05:40.272Z,95481.18
2019-04-12T04:08:09.285Z,95481.34
2019-04-12T04:10:38.078Z,95480.09
2019-04-12T04:13:07.200Z,95481.37
2019-04-12T04:15:36.472Z,95484.31
2019-04-12T04:18:20.663Z,95479.59
2019-04-12T04:21:08.107Z,95476.99
2019-04-12T04:23:59.433Z,95479.14
2019-04-12T04:26:47.918Z,95480.33
2019-04-12T04:29:28.821Z,95481.89
2019-04-12T04:32:31.892Z,95478.93
2019-04-12T04:35:00.576Z,95479.97
2019-04-12T04:37:29.319Z,95477.93
2019-04-12T04:39:58.025Z,95481.98
2019-04-12T04:42:26.762Z,95474.06
2019-04-12T04:44:55.620Z,95484.13
2019-04-12T04:47:24.505Z,95475.09
2019-04-12T04:49:53.265Z,95480.13
2019-04-12T04:52:22.123Z,95479.55
2019-04-12T04:54:50.961Z,95479.93
2019-04-12T04:57:19.676Z,95479.39
2019-04-12T04:59:49.392Z,95487.39
2019-04-12T05:02:18.145Z,95481.40
2019-04-12T05:04:46.833Z,95486.47
2019-04-12T05:07:15.513Z,95482.55
2019-04-12T05:09:44.547Z,95485.20
2019-04-12T05:12:13.317Z,95483.59
2019-04-12T05:14:42.212Z,95489.54
2019-04-12T05:17:11.469Z,95493.02
2019-04-12T05:19:40.212Z,95493.48
2019-04-12T05:22:08.994Z,95494.47
2019-04-12T05:24:37.907Z,95492.30
2019-04-12T05:27:06.797Z,95497.72
2019-04-12T05:29:35.452Z,95492.32
2019-04-12T05:32:04.343Z,95495.53
2019-04-12T05:34:33.333Z,95496.82
2019-04-12T05:37:10.140Z,95498.84
2019-04-12T05:39:32.415Z,95499.49
2019-04-12T05:42:01.489Z,95500.23
2019-04-12T05:44:30.250Z,95499.73
2019-04-12T05:47:11.586Z,95500.66
2019-04-12T05:49:59.214Z,95504.77
2019-04-12T05:52:28.106Z,95508.73
2019-04-12T05:54:56.803Z,95505.77
2019-04-12T05:57:25.532Z,95504.65
2019-04-12T05:59:54.830Z,95497.53
2019-04-12T06:02:33.730Z,95497.13
2019-04-12T06:05:02.643Z,95507.18
2019-04-12T06:07:32.550Z,95510.43
2019-04-12T06:10:01.225Z,95511.80
2019-04-12T06:12:30.628Z,95507.89
2019-04-12T06:14:59.366Z,95512.75
2019-04-12T06:17:28.959Z,95509.27
2019-04-12T06:20:15.738Z,95508.30
2019-04-12T06:22:44.800Z,95511.04
2019-04-12T06:25:17.758Z,95510.53
2019-04-12T06:27:51.769Z,95512.63
2019-04-12T06:30:26.628Z,95520.02
2019-04-12T06:32:56.680Z,95517.52
2019-04-12T06:35:25.306Z,95517.30
2019-04-12T06:37:54.270Z,95516.27
2019-04-12T06:40:22.879Z,95512.05
2019-04-12T06:42:51.820Z,95511.36
2019-04-12T06:45:21.598Z,95516.17
2019-04-12T06:47:50.319Z,95508.62
2019-04-12T06:50:32.730Z,95516.48
2019-04-12T06:53:01.416Z,95520.50
2019-04-12T06:55:32.542Z,95515.79
2019-04-12T06:58:01.410Z,95526.61
2019-04-12T07:00:55.446Z,95528.25
2019-04-12T07:03:37.178Z,95518.59
2019-04-12T07:06:05.852Z,95517.83
2019-04-12T07:08:34.469Z,95522.73
2019-04-12T07:11:03.174Z,95517.84
2019-04-12T07:13:32.855Z,95520.37
2019-04-12T07:16:01.576Z,95516.77
2019-04-12T07:18:30.369Z,95514.38
2019-04-12T07:20:59.266Z,95517.65
2019-04-12T07:23:28.303Z,95513.86
2019-04-12T07:25:56.943Z,95511.41
2019-04-12T07:28:25.566Z,95511.70
2019-04-12T07:30:56.935Z,95515.91
2019-04-12T07:33:24.538Z,95517.22
2019-04-12T07:35:53.174Z,95516.56
2019-04-12T07:38:21.795Z,95517.94
2019-04-12T07:40:50.660Z,95514.20
2019-04-12T07:43:19.293Z,95511.39
2019-04-12T07:45:48.022Z,95518.72
2019-04-12T07:48:16.668Z,95515.55
2019-04-12T07:50:58.615Z,95514.14
2019-04-12T07:53:30.968Z,95514.97
2019-04-12T07:56:04.111Z,95515.09
2019-04-12T07:58:51.843Z,95511.33
2019-04-12T08:01:39.515Z,95513.48
2019-04-12T08:04:19.193Z,95510.64
2019-04-12T08:06:55.518Z,95513.42
2019-04-12T08:09:24.216Z,95515.29
2019-04-12T08:11:52.999Z,95519.49
2019-04-12T08:14:21.590Z,95516.95
2019-04-12T08:16:50.325Z,95514.78
2019-04-12T08:19:19.183Z,95520.06
2019-04-12T08:21:47.861Z,95516.78
2019-04-12T08:24:16.706Z,95530.97
2019-04-12T08:26:46.076Z,95529.32
2019-04-12T08:29:14.920Z,95526.83
2019-04-12T08:31:43.680Z,95525.30
2019-04-12T08:34:12.405Z,95529.02
2019-04-12T08:36:41.182Z,95534.98
2019-04-12T08:39:09.853Z,95536.77
2019-04-12T08:41:38.512Z,95540.99
2019-04-12T08:44:07.113Z,95539.17
2019-04-12T08:46:35.741Z,95537.63
2019-04-12T08:49:04.656Z,95530.87
2019-04-12T08:51:33.438Z,95532.97
2019-04-12T08:54:02.195Z,95534.80
2019-04-12T08:56:31.181Z,95536.91
2019-04-12T08:58:59.833Z,95537.31
2019-04-12T09:01:28.976Z,95541.34
2019-04-12T09:03:57.965Z,95535.66
2019-04-12T09:06:26.669Z,95531.94
2019-04-12T09:09:12.240Z,95535.05
2019-04-12T09:11:41.047Z,95533.45
2019-04-12T09:14:09.780Z,95535.94
2019-04-12T09:16:38.575Z,95529.45
2019-04-12T09:19:12.944Z,95542.92
2019-04-12T09:21:55.871Z,95534.77
2019-04-12T09:24:28.716Z,95543.00
2019-04-12T09:26:57.363Z,95550.17
2019-04-12T09:29:26.596Z,95553.34
2019-04-12T09:31:55.254Z,95557.55
2019-04-12T09:34:24.000Z,95549.16
2019-04-12T09:36:52.687Z,95550.95
2019-04-12T09:39:21.306Z,95548.80
2019-04-12T09:41:49.959Z,95551.56
2019-04-12T09:44:18.862Z,95541.34
2019-04-12T09:46:47.720Z,95551.36
2019-04-12T09:49:16.347Z,95545.72
2019-04-12T09:51:45.030Z,95546.69
2019-04-12T09:54:13.706Z,95545.44
2019-04-12T09:56:42.369Z,95544.56
2019-04-12T09:59:10.996Z,95541.80
2019-04-12T10:01:39.607Z,95542.33
2019-04-12T10:04:08.421Z,95543.39
2019-04-12T10:06:37.032Z,95539.22
2019-04-12T10:09:07.047Z,95535.78
2019-04-12T10:11:36.056Z,95537.11
2019-04-12T10:14:07.375Z,95531.00
2019-04-12T10:16:35.414Z,95537.16
2019-04-12T10:19:04.153Z,95533.53
2019-04-12T10:21:32.806Z,95537.99
2019-04-12T10:24:01.412Z,95535.63
2019-04-12T10:26:30.106Z,95526.57
2019-04-12T10:28:59.374Z,95532.64
2019-04-12T10:31:30.310Z,95526.98
2019-04-12T10:34:00.472Z,95532.14
2019-04-12T10:36:29.108Z,95528.73
2019-04-12T10:39:07.975Z,95537.06
2019-04-12T10:41:36.869Z,95529.53
2019-04-12T10:44:18.839Z,95528.89
2019-04-12T10:46:49.051Z,95526.36
2019-04-12T10:49:35.264Z,95528.72
2019-04-12T10:52:29.054Z,95521.48
2019-04-12T10:55:00.172Z,95529.59
2019-04-12T10:57:29.322Z,95534.84
2019-04-12T10:59:58.396Z,95536.01
2019-04-12T11:02:28.181Z,95540.80
2019-04-12T11:04:57.087Z,95539.58
2019-04-12T11:07:26.010Z,95536.47
2019-04-12T11:09:54.749Z,95544.24
2019-04-12T11:12:23.719Z,95542.94
2019-04-12T11:14:54.838Z,95536.29
2019-04-12T11:17:22.908Z,95524.82
2019-04-12T11:19:51.602Z,95524.23
2019-04-12T11:22:20.244Z,95527.37
2019-04-12T11:24:48.917Z,95526.36
2019-04-12T11:27:17.537Z,95516.52
2019-04-12T11:29:46.450Z,95515.41
2019-04-12T11:32:15.114Z,95517.20
2019-04-12T11:34:44.058Z,95521.11
2019-04-12T11:37:12.761Z,95524.09
2019-04-12T11:39:41.491Z,95519.55
2019-04-12T11:42:10.237Z,95520.59
2019-04-12T11:44:39.542Z,95521.75
2019-04-12T11:47:08.267Z,95524.81
2019-04-12T11:49:37.032Z,95524.83
2019-04-12T11:52:06.221Z,95520.22
2019-04-12T11:54:34.917Z,95519.29
2019-04-12T11:57:03.699Z,95517.19
2019-04-12T11:59:32.444Z,95517.20
2019-04-12T12:02:20.087Z,95520.53
2019-04-12T12:05:03.484Z,95524.63
2019-04-12T12:07:36.193Z,95518.52
2019-04-12T12:10:39.879Z,95519.67
2019-04-12T12:13:22.733Z,95527.59
2019-04-12T12:16:15.098Z,95519.83
2019-04-12T12:18:45.818Z,95524.84
2019-04-12T12:21:14.541Z,95519.36
2019-04-12T12:23:43.215Z,95517.39
2019-04-12T12:26:12.016Z,95520.83
2019-04-12T12:28:40.964Z,95519.02
2019-04-12T12:31:10.033Z,95519.70
2019-04-12T12:33:38.740Z,95515.50
2019-04-12T12:36:07.656Z,95512.45
2019-04-12T12:38:36.363Z,95504.52
2019-04-12T12:41:05.166Z,95509.73
2019-04-12T12:43:34.009Z,95499.01
2019-04-12T12:46:03.011Z,95500.78
2019-04-12T12:48:31.690Z,95493.58
2019-04-12T12:51:00.688Z,95498.67
2019-04-12T12:53:29.656Z,95495.24
2019-04-12T12:55:58.301Z,95490.86
2019-04-12T12:58:26.984Z,95504.08
2019-04-12T13:00:55.952Z,95502.98
2019-04-12T13:03:24.714Z,95496.02
2019-04-12T13:05:53.701Z,95491.78
2019-04-12T13:08:22.371Z,95503.42
2019-04-12T13:10:51.020Z,95504.11
2019-04-12T13:13:19.715Z,95506.72
2019-04-12T13:15:48.355Z,95506.15
2019-04-12T13:18:17.337Z,95503.23
2019-04-12T13:20:46.013Z,95502.34
2019-04-12T13:23:14.754Z,95499.95
2019-04-12T13:25:43.478Z,95496.18
2019-04-12T13:28:12.323Z,95491.91
2019-04-12T13:30:58.797Z,95494.04
2019-04-12T13:33:38.071Z,95497.22
2019-04-12T13:36:24.718Z,95491.52
2019-04-12T13:38:57.988Z,95493.55
2019-04-12T13:41:26.649Z,95486.78
2019-04-12T13:43:55.453Z,95488.77
2019-04-12T13:46:25.270Z,95490.72
2019-04-12T13:48:54.018Z,95481.67
2019-04-12T13:51:22.728Z,95485.27
2019-04-12T13:53:51.354Z,95474.77
2019-04-12T13:56:20.092Z,95479.02
2019-04-12T13:58:48.773Z,95478.55
2019-04-12T14:01:17.389Z,95475.56
2019-04-12T14:03:46.010Z,95472.77
2019-04-12T14:06:14.748Z,95470.27
2019-04-12T14:08:43.409Z,95465.70
2019-04-12T14:11:12.170Z,95455.22
2019-04-12T14:13:41.158Z,95456.66
2019-04-12T14:16:10.177Z,95462.44
2019-04-12T14:18:38.818Z,95454.99
2019-04-12T14:21:07.472Z,95457.32
2019-04-12T14:23:36.158Z,95457.63
2019-04-12T14:26:05.300Z,95464.81
2019-04-12T14:28:34.054Z,95472.13
2019-04-12T14:31:05.772Z,95478.58
2019-04-12T14:34:02.759Z,95475.63
2019-04-12T14:36:39.481Z,95480.91
2019-04-12T14:39:10.745Z,95480.58
2019-04-12T14:41:39.713Z,95489.28
2019-04-12T14:44:13.679Z,95496.06
2019-04-12T14:46:46.051Z,95498.70
2019-04-12T14:49:15.054Z,95491.63
2019-04-12T14:51:43.708Z,95485.45
2019-04-12T14:54:12.470Z,95482.50
2019-04-12T14:56:41.123Z,95475.59
2019-04-12T14:59:10.398Z,95480.24
2019-04-12T15:01:39.079Z,95476.05
2019-04-12T15:04:07.793Z,95481.37
2019-04-12T15:06:36.458Z,95479.69
2019-04-12T15:09:06.871Z,95474.67
2019-04-12T15:11:35.661Z,95483.02
2019-04-12T15:14:04.867Z,95476.80
2019-04-12T15:16:33.719Z,95474.64
2019-04-12T15:19:02.323Z,95474.73
2019-04-12T15:21:31.471Z,95476.20
2019-04-12T15:24:00.508Z,95473.39
2019-04-12T15:26:29.145Z,95476.73
2019-04-12T15:28:57.808Z,95473.80
2019-04-12T15:31:26.473Z,95467.03
2019-04-12T15:33:55.166Z,95469.48
2019-04-12T15:36:23.867Z,95477.70
2019-04-12T15:38:52.874Z,95484.04
2019-04-12T15:41:22.686Z,95478.10
2019-04-12T15:43:51.277Z,95473.33
2019-04-12T15:46:19.990Z,95472.86
2019-04-12T15:48:48.832Z,95479.81
2019-04-12T15:51:17.524Z,95480.33
2019-04-12T15:53:46.154Z,95482.48
2019-04-12T15:56:15.096Z,95483.92
2019-04-12T15:58:43.994Z,95478.45
2019-04-12T16:01:18.965Z,95475.25
2019-04-12T16:03:47.711Z,95474.72
2019-04-12T16:06:16.725Z,95474.31
2019-04-12T16:09:18.197Z,95466.20
2019-04-12T16:12:11.621Z,95475.72
2019-04-12T16:15:23.645Z,95477.29
2019-04-12T16:18:06.174Z,95495.70
2019-04-12T16:20:34.892Z,95489.75
2019-04-12T16:23:03.618Z,95489.23
2019-04-12T16:25:32.422Z,95488.73
2019-04-12T16:28:04.435Z,95488.17
2019-04-12T16:30:45.053Z,95496.28
2019-04-12T16:33:26.099Z,95494.34
2019-04-12T16:36:01.100Z,95497.57
2019-04-12T16:38:31.885Z,95506.17
2019-04-12T16:41:00.542Z,95497.00
2019-04-12T16:43:29.471Z,95508.19
2019-04-12T16:45:58.150Z,95507.44
2019-04-12T16:48:27.136Z,95504.87
2019-04-12T16:50:55.847Z,95510.19
2019-04-12T16:53:24.641Z,95501.32
2019-04-12T16:55:53.376Z,95510.40
2019-04-12T16:58:22.104Z,95504.39
2019-04-12T17:00:50.843Z,95510.73
2019-04-12T17:03:19.530Z,95502.59
2019-04-12T17:05:48.282Z,95508.20
2019-04-12T17:08:16.907Z,95500.56
2019-04-12T17:10:45.591Z,95506.80
2019-04-12T17:13:14.485Z,95511.81
2019-04-12T17:15:43.143Z,95510.78
2019-04-12T17:18:11.775Z,95509.88
2019-04-12T17:20:40.779Z,95511.75
2019-04-12T17:23:09.682Z,95509.23
2019-04-12T17:25:38.333Z,95501.35
2019-04-12T17:28:07.126Z,95500.17
2019-04-12T17:30:36.186Z,95505.31
2019-04-12T17:33:05.029Z,95502.34
2019-04-12T17:35:33.943Z,95503.63
2019-04-12T17:38:03.086Z,95501.59
2019-04-12T17:40:31.863Z,95508.45
2019-04-12T17:43:00.558Z,95501.83
2019-04-12T17:45:29.573Z,95515.05
2019-04-12T17:47:58.367Z,95511.63
2019-04-12T17:50:31.891Z,95517.65
2019-04-12T17:53:18.020Z,95516.99
2019-04-12T17:59:15.623Z,95513.87
2019-04-12T18:02:00.888Z,95512.50
2019-04-12T18:04:22.434Z,95510.13
2019-04-12T18:06:51.123Z,95512.45
2019-04-12T18:09:19.791Z,95510.76
2019-04-12T18:11:49.215Z,95513.25
2019-04-12T18:14:17.910Z,95506.30
2019-04-12T18:16:46.996Z,95508.83
2019-04-12T18:19:15.930Z,95508.84
2019-04-12T18:21:44.609Z,95512.55
2019-04-12T18:24:13.663Z,95513.98
2019-04-12T18:26:42.263Z,95513.77
2019-04-12T18:29:10.892Z,95523.21
2019-04-12T18:31:39.814Z,95517.34
2019-04-12T18:34:08.524Z,95520.81
2019-04-12T18:36:37.535Z,95529.55
2019-04-12T18:39:08.904Z,95526.65
2019-04-12T18:41:37.905Z,95521.63
2019-04-12T18:44:06.744Z,95529.13
2019-04-12T18:46:35.392Z,95532.19
2019-04-12T18:49:04.232Z,95527.08
2019-04-12T18:51:33.157Z,95528.83
2019-04-12T18:54:01.783Z,95532.16
2019-04-12T18:56:30.653Z,95536.84
2019-04-12T18:58:59.278Z,95533.69
2019-04-12T19:01:27.914Z,95532.77
2019-04-12T19:03:56.677Z,95526.03
2019-04-12T19:06:25.634Z,95535.24
2019-04-12T19:08:54.760Z,95539.70
2019-04-12T19:11:23.626Z,95533.53
2019-04-12T19:13:52.296Z,95543.98
2019-04-12T19:16:21.269Z,95543.20
2019-04-12T19:18:50.171Z,95535.84
2019-04-12T19:21:18.767Z,95540.89
2019-04-12T19:23:47.355Z,95544.22
2019-04-12T19:26:15.945Z,95539.48
2019-04-12T19:28:44.541Z,95544.30
2019-04-12T19:31:17.773Z,95543.20
2019-04-12T19:33:57.762Z,95543.91
2019-04-12T19:36:42.330Z,95548.09
2019-04-12T19:39:28.956Z,95538.55
2019-04-12T19:42:00.005Z,95541.44
2019-04-12T19:44:28.655Z,95546.80
2019-04-12T19:46:57.338Z,95544.77
2019-04-12T19:49:26.009Z,95544.73
2019-04-12T19:51:54.934Z,95550.03
2019-04-12T19:54:23.541Z,95546.15
2019-04-12T19:56:52.315Z,95556.85
2019-04-12T19:59:20.970Z,95553.46
2019-04-12T20:01:49.640Z,95548.70
2019-04-12T20:04:18.484Z,95559.33
2019-04-12T20:06:47.138Z,95548.44
2019-04-12T20:09:16.073Z,95549.70
2019-04-12T20:11:44.705Z,95559.02
2019-04-12T20:14:13.311Z,95549.20
2019-04-12T20:16:41.927Z,95548.00
2019-04-12T20:19:10.574Z,95553.11
2019-04-12T20:21:39.239Z,95548.05
2019-04-12T20:24:07.876Z,95555.00
2019-04-12T20:26:36.617Z,95550.10
2019-04-12T20:29:05.399Z,95547.27
2019-04-12T20:31:34.118Z,95552.14
2019-04-12T20:34:03.048Z,95549.41
2019-04-12T20:36:31.884Z,95548.41
2019-04-12T20:39:00.845Z,95544.86
2019-04-12T20:41:29.447Z,95547.72
2019-04-12T20:43:58.134Z,95543.80
2019-04-12T20:46:26.736Z,95539.22
2019-04-12T20:48:55.612Z,95543.06
2019-04-12T20:51:24.487Z,95542.16
2019-04-12T20:53:53.366Z,95542.80
2019-04-12T20:56:22.203Z,95539.38
2019-04-12T20:58:50.842Z,95539.11
2019-04-12T21:01:19.432Z,95538.91
2019-04-12T21:03:48.347Z,95538.67
2019-04-12T21:06:17.236Z,95541.45
2019-04-12T21:08:45.896Z,95541.27
2019-04-12T21:11:14.486Z,95541.70
2019-04-12T21:13:43.114Z,95542.56
2019-04-12T21:16:11.731Z,95541.72
2019-04-12T21:18:40.340Z,95543.48
2019-04-12T21:21:08.942Z,95544.69
2019-04-12T21:23:37.848Z,95541.75
2019-04-12T21:26:06.451Z,95539.11
2019-04-12T21:28:35.073Z,95532.47
2019-04-12T21:31:03.697Z,95537.77
2019-04-12T21:33:32.566Z,95537.25
2019-04-12T21:36:01.235Z,95535.83
2019-04-12T21:38:30.122Z,95541.27
2019-04-12T21:40:58.751Z,95536.41
2019-04-12T21:43:27.623Z,95538.83
2019-04-12T21:45:56.406Z,95532.73
2019-04-12T21:48:25.302Z,95538.14
2019-04-12T21:50:54.006Z,95536.89
2019-04-12T21:53:22.640Z,95535.91
2019-04-12T21:55:51.918Z,95532.18
2019-04-12T21:58:20.602Z,95535.33
2019-04-12T22:00:54.209Z,95534.97
2019-04-12T22:03:23.455Z,95533.63
2019-04-12T22:05:52.561Z,95541.56
2019-04-12T22:08:21.243Z,95544.69
2019-04-12T22:10:50.181Z,95536.05
2019-04-12T22:13:18.861Z,95536.24
2019-04-12T22:15:48.514Z,95534.28
2019-04-12T22:18:17.578Z,95536.63
2019-04-12T22:20:46.418Z,95535.63
2019-04-12T22:23:15.298Z,95538.03
2019-04-12T22:25:43.910Z,95537.31
2019-04-12T22:28:12.539Z,95530.98
2019-04-12T22:30:41.932Z,95530.41
2019-04-12T22:33:10.574Z,95528.25
2019-04-12T22:35:39.243Z,95529.74
2019-04-12T22:38:07.917Z,95524.95
2019-04-12T22:40:36.528Z,95526.70
2019-04-12T22:43:05.620Z,95520.00
2019-04-12T22:45:34.647Z,95524.42
2019-04-12T22:48:03.392Z,95517.31
2019-04-12T22:50:31.991Z,95515.24
2019-04-12T22:53:00.855Z,95513.59
2019-04-12T22:55:31.178Z,95515.44
2019-04-12T22:57:59.769Z,95522.08
2019-04-12T23:00:28.460Z,95520.58
2019-04-12T23:02:57.142Z,95514.13
2019-04-12T23:05:25.759Z,95516.61
2019-04-12T23:07:54.714Z,95519.35
2019-04-12T23:10:23.668Z,95520.56
2019-04-12T23:12:52.614Z,95523.42
2019-04-12T23:15:23.543Z,95520.51
2019-04-12T23:17:52.338Z,95520.94
2019-04-12T23:20:20.973Z,95524.80
2019-04-12T23:22:49.596Z,95519.16
2019-04-12T23:25:18.502Z,95526.34
2019-04-12T23:27:47.181Z,95524.99
2019-04-12T23:30:27.762Z,95526.27
2019-04-12T23:32:56.457Z,95527.09
2019-04-12T23:35:31.320Z,95520.28
2019-04-12T23:38:00.439Z,95522.66
2019-04-12T23:40:29.106Z,95523.30
2019-04-12T23:42:57.745Z,95521.48
2019-04-12T23:45:26.413Z,95525.23
2019-04-12T23:47:55.393Z,95522.15
2019-04-12T23:50:24.611Z,95514.88
2019-04-12T23:52:53.255Z,95511.73
2019-04-12T23:55:21.942Z,95505.34
2019-04-12T23:57:50.580Z,95495.41
